»·PEaware :: AMX646 KLAS-KSFO

AMX646 :: KLAS-KSFO

FLIGHT INFORMATION

Flight Status: Arrived
Operator:
Aeromexico
More flights by this operator :: More flights under this callsign
Pilot: Alfredo R. (12181)
Aircraft: BOEING 737-700
(B737)
More flights by this aircraft type
Origin: KLAS McCarran Intl
United States
Destination: KSFO San Francisco Intl
United States
More flights between these airports :: More routes between these airports
Route: SHEAD1 OAL INYOE DYAMD5
File this flight plan on PilotEdge
Remarks:
Altitude:
(Current/Filed)
380ft
Speed:
(Current/Filed)
425kts
Departed: 24-May-20 12:46 PM
Arrived: 24-May-20 02:00 PM
Distance/Time
Traveled:
359nm/1:14
Distance/Time
To Go:
Arrived

Flight Plot

Page will automatically refresh every two minutes.

Flight plan parsing failed; only flown route is shown


Map Options




Map Legend


Flown Route
Filed Route
Departure Airport
Arrival Airport
Navaid (VOR, NDB)
Fix

Horizontal Profiles

Position Reports

Time Latitude Longitude Heading Altitude Ground
Speed
24-May-20 12:00 36.079850 -115.139537 355 2073ft 0kts
24-May-20 12:01 36.079850 -115.139537 355 2073ft 0kts
24-May-20 12:02 36.079850 -115.139537 355 2073ft 0kts
24-May-20 12:03 36.079850 -115.139537 355 2073ft 0kts
24-May-20 12:04 36.079850 -115.139537 355 2073ft 0kts
24-May-20 12:05 36.079850 -115.139537 355 2073ft 0kts
24-May-20 12:06 36.079850 -115.139537 355 2073ft 0kts
24-May-20 12:07 36.079850 -115.139537 355 2073ft 0kts
24-May-20 12:08 36.079850 -115.139537 355 2073ft 0kts
24-May-20 12:09 36.079850 -115.139537 355 2073ft 0kts
24-May-20 12:10 36.079850 -115.139537 355 2073ft 0kts
24-May-20 12:11 36.079850 -115.139537 355 2073ft 0kts
24-May-20 12:12 36.079850 -115.139537 355 2073ft 0kts
24-May-20 12:13 36.079850 -115.139537 355 2073ft 0kts
24-May-20 12:14 36.079850 -115.139537 355 2073ft 0kts
24-May-20 12:15 36.079850 -115.139537 355 2073ft 0kts
24-May-20 12:16 36.079850 -115.139537 355 2073ft 0kts
24-May-20 12:17 36.079850 -115.139537 355 2073ft 0kts
24-May-20 12:18 36.079850 -115.139537 355 2073ft 0kts
24-May-20 12:19 36.079850 -115.139537 355 2073ft 0kts
24-May-20 12:20 36.079850 -115.139537 355 2073ft 0kts
24-May-20 12:21 36.079850 -115.139537 355 2073ft 0kts
24-May-20 12:22 36.079850 -115.139537 355 2073ft 0kts
24-May-20 12:23 36.079850 -115.139537 355 2073ft 0kts
24-May-20 12:24 36.079850 -115.139537 355 2073ft 0kts
24-May-20 12:25 36.079850 -115.139537 355 2073ft 0kts
24-May-20 12:26 36.079850 -115.139537 355 2073ft 0kts
24-May-20 12:27 36.079850 -115.139537 355 2073ft 0kts
24-May-20 12:28 36.079851 -115.139536 355 2073ft 0kts
24-May-20 12:29 36.079851 -115.139536 355 2073ft 0kts
24-May-20 12:30 36.079486 -115.139483 351 2074ft 2kts
24-May-20 12:31 36.079384 -115.138889 218 2073ft 2kts
24-May-20 12:32 36.079102 -115.139211 221 2075ft 2kts
24-May-20 12:33 36.079042 -115.139284 225 2075ft 0kts
24-May-20 12:34 36.079042 -115.139284 225 2075ft 0kts
24-May-20 12:35 36.079042 -115.139284 225 2075ft 0kts
24-May-20 12:36 36.079042 -115.139284 225 2075ft 0kts
24-May-20 12:37 36.079042 -115.139284 225 2075ft 0kts
24-May-20 12:38 36.078237 -115.138477 89 2075ft 15kts
24-May-20 12:39 36.078254 -115.130156 89 2049ft 24kts
24-May-20 12:40 36.078268 -115.123517 89 2036ft 13kts
24-May-20 12:41 36.077432 -115.121523 138 2037ft 2kts
24-May-20 12:42 36.077387 -115.121482 145 2037ft 0kts
24-May-20 12:43 36.077387 -115.121482 145 2037ft 0kts
24-May-20 12:44 36.076713 -115.121329 191 2038ft 6kts
24-May-20 12:45 36.076404 -115.130762 270 2054ft 98kts
24-May-20 12:46 36.075981 -115.186808 272 3847ft 169kts
24-May-20 12:47 36.050869 -115.255360 227 5704ft 258kts
24-May-20 12:48 35.980530 -115.299519 214 7498ft 289kts
24-May-20 12:49 35.918765 -115.365182 229 9051ft 296kts
24-May-20 12:50 35.887918 -115.463697 269 11021ft 315kts
24-May-20 12:51 35.889045 -115.574804 274 11033ft 315kts
24-May-20 12:52 35.891122 -115.685701 274 12203ft 317kts
24-May-20 12:53 35.893051 -115.799422 276 15717ft 331kts
24-May-20 12:54 35.896918 -115.918840 285 18887ft 343kts
24-May-20 12:55 35.942155 -116.022339 314 21987ft 337kts
24-May-20 12:56 36.011931 -116.104620 318 24580ft 348kts
24-May-20 12:57 36.086044 -116.189985 318 26746ft 360kts
24-May-20 12:58 36.160809 -116.276367 318 28537ft 375kts
24-May-20 12:59 36.239919 -116.368013 317 30411ft 384kts
24-May-20 13:00 36.317946 -116.458695 318 32512ft 380kts
24-May-20 13:01 36.395203 -116.548727 318 34431ft 376kts
24-May-20 13:02 36.471649 -116.638316 317 36115ft 372kts
24-May-20 13:03 36.547262 -116.727171 317 37488ft 371kts
24-May-20 13:04 36.633129 -116.800609 328 38092ft 384kts
24-May-20 13:05 36.727515 -116.872059 328 38060ft 386kts
24-May-20 13:06 36.820493 -116.942860 328 38060ft 381kts
24-May-20 13:07 36.913167 -117.013629 328 38061ft 381kts
24-May-20 13:08 37.005647 -117.084487 328 38056ft 380kts
24-May-20 13:09 37.098375 -117.155681 328 38153ft 379kts
24-May-20 13:10 37.188964 -117.225503 328 38181ft 383kts
24-May-20 13:11 37.280560 -117.296274 329 38161ft 381kts
24-May-20 13:12 37.374166 -117.359357 333 38174ft 379kts
24-May-20 13:13 37.470488 -117.421719 333 38167ft 382kts
24-May-20 13:14 37.567528 -117.484743 333 38169ft 381kts
24-May-20 13:15 37.664393 -117.547883 333 38174ft 380kts
24-May-20 13:16 37.760935 -117.610969 333 38165ft 379kts
24-May-20 13:17 37.854613 -117.672389 333 38167ft 371kts
24-May-20 13:18 37.939005 -117.746904 314 38169ft 380kts
24-May-20 13:19 37.984801 -117.870745 285 38171ft 407kts
24-May-20 13:20 37.977490 -118.017464 270 38091ft 419kts
24-May-20 13:21 37.962047 -118.162638 270 38080ft 418kts
24-May-20 13:22 37.946092 -118.310459 269 38227ft 424kts
24-May-20 13:23 37.930023 -118.458216 269 38229ft 423kts
24-May-20 13:24 37.913760 -118.605612 269 38224ft 421kts
24-May-20 13:25 37.897588 -118.751203 269 38228ft 422kts
24-May-20 13:26 37.880580 -118.897654 268 38228ft 418kts
24-May-20 13:27 37.864131 -119.043367 268 38228ft 420kts
24-May-20 13:28 37.847187 -119.189896 268 38225ft 417kts
24-May-20 13:30 37.830538 -119.332195 267 38239ft 409kts
24-May-20 13:31 37.813531 -119.476990 267 36851ft 409kts
24-May-20 13:32 37.796906 -119.615879 267 35134ft 394kts
24-May-20 13:33 37.780191 -119.755253 266 33629ft 403kts
24-May-20 13:34 37.763232 -119.895349 266 32105ft 404kts
24-May-20 13:35 37.745855 -120.036605 265 30592ft 410kts
24-May-20 13:36 37.727959 -120.180642 265 28788ft 416kts
24-May-20 13:37 37.710131 -120.323128 265 26960ft 405kts
24-May-20 13:38 37.692614 -120.462003 265 25155ft 393kts
24-May-20 13:39 37.676630 -120.598278 266 23402ft 382kts
24-May-20 13:40 37.661053 -120.730726 266 21671ft 375kts
24-May-20 13:41 37.645502 -120.859697 265 19962ft 368kts
24-May-20 13:42 37.630029 -120.986231 264 18199ft 361kts
24-May-20 13:43 37.613347 -121.110263 265 16502ft 356kts
24-May-20 13:44 37.596823 -121.233478 264 14884ft 353kts
24-May-20 13:45 37.582177 -121.354723 266 13274ft 346kts
24-May-20 13:46 37.568650 -121.472230 265 11695ft 328kts
24-May-20 13:46 37.557930 -121.564455 264 10423ft 307kts
24-May-20 13:48 37.537735 -121.679920 255 8824ft 271kts
24-May-20 13:49 37.516059 -121.770357 256 7839ft 268kts
24-May-20 13:49 37.498247 -121.844560 256 7060ft 263kts
24-May-20 13:51 37.472941 -121.942948 254 6211ft 243kts
24-May-20 13:51 37.467734 -122.008003 290 5421ft 216kts
24-May-20 13:52 37.492081 -122.074651 301 4559ft 198kts
24-May-20 13:53 37.516619 -122.133015 301 3661ft 184kts
24-May-20 13:54 37.540690 -122.189775 300 2979ft 186kts
24-May-20 13:55 37.563110 -122.243003 300 2092ft 158kts
24-May-20 13:56 37.581644 -122.286891 300 1326ft 132kts
24-May-20 13:57 37.598785 -122.327608 298 604ft 131kts
24-May-20 13:58 37.615403 -122.367019 296 11ft 84kts
24-May-20 13:59 37.619760 -122.379094 237 29ft 6kts
24-May-20 14:00 37.617483 -122.379432 177 29ft 11kts
24-May-20 14:01 37.615514 -122.381187 295 31ft 7kts
24-May-20 14:02 37.615594 -122.382574 224 31ft 0kts
24-May-20 14:03 37.615530 -122.382653 225 30ft 0kts
24-May-20 14:04 37.615530 -122.382653 225 30ft 0kts

Navigation Log

Ident Type
Flight plan parsing failed, navigation log unavailable